Time;durP1;ratioP1;P1;durP2;ratioP2;P2;SDS_P1;SDS_P2;PMS_P1;PMS_P2;Temp;Humidity;BMP_temperature;BMP_pressure;BME280_temperature;BME280_humidity;BME280_pressure;Samples;Min_cycle;Max_cycle;Signal;HPM_P1;HPM_P2
2022/04/16 00:01:11;;;;;;;15.77;10.67;;;7.60;99.90;;;;;;4895663;29;20645;-59
2022/04/16 00:03:41;;;;;;;14.57;9.77;;;7.60;99.90;;;;;;4895569;29;20246;-59
2022/04/16 00:06:09;;;;;;;14.40;10.23;;;7.60;99.90;;;;;;4902890;29;20244;-59
2022/04/16 00:08:38;;;;;;;14.67;10.23;;;7.60;99.90;;;;;;4887862;29;20233;-58
2022/04/16 00:11:07;;;;;;;15.07;10.27;;;7.50;99.90;;;;;;4895629;29;20243;-58
2022/04/16 00:13:36;;;;;;;15.93;10.60;;;7.60;99.90;;;;;;4895309;29;20777;-60
2022/04/16 00:16:04;;;;;;;14.90;10.07;;;7.60;99.90;;;;;;4898002;29;20233;-59
2022/04/16 00:18:32;;;;;;;15.03;9.97;;;7.50;99.90;;;;;;4895308;29;20267;-59
2022/04/16 00:21:03;;;;;;;14.40;10.57;;;7.50;99.90;;;;;;4895286;29;20237;-59
2022/04/16 00:23:31;;;;;;;14.30;9.27;;;7.50;99.90;;;;;;4895309;29;20245;-59
2022/04/16 00:26:00;;;;;;;14.53;9.80;;;7.50;99.90;;;;;;4898345;29;20291;-59
2022/04/16 00:28:30;;;;;;;14.53;9.47;;;7.50;99.90;;;;;;4895362;29;20701;-59
2022/04/16 00:30:58;;;;;;;13.13;9.43;;;7.40;99.90;;;;;;4896041;29;20243;-59
2022/04/16 00:33:26;;;;;;;14.13;9.77;;;7.40;99.90;;;;;;4894720;29;20245;-59
2022/04/16 00:35:55;;;;;;;14.43;9.60;;;7.30;99.90;;;;;;4900716;29;20247;-58
2022/04/16 00:38:23;;;;;;;14.20;9.13;;;7.30;99.90;;;;;;4897245;29;20267;-59
2022/04/16 00:40:52;;;;;;;11.83;8.47;;;7.30;99.90;;;;;;4895366;29;20238;-59
2022/04/16 00:43:24;;;;;;;12.27;8.47;;;7.20;99.90;;;;;;4895413;29;20245;-58
2022/04/16 00:45:54;;;;;;;11.17;7.43;;;7.00;99.90;;;;;;4895397;29;20241;-59
2022/04/16 00:48:24;;;;;;;9.37;6.37;;;7.00;99.90;;;;;;4895199;29;20261;-57
2022/04/16 00:50:53;;;;;;;10.83;5.57;;;7.00;99.90;;;;;;4898745;29;20242;-59
2022/04/16 00:53:22;;;;;;;8.77;4.93;;;6.90;99.90;;;;;;4896706;29;20274;-59
2022/04/16 00:55:50;;;;;;;7.83;4.53;;;6.80;99.90;;;;;;4898924;29;20694;-59
2022/04/16 00:58:19;;;;;;;6.60;4.57;;;6.80;99.90;;;;;;4898862;29;20247;-58
2022/04/16 01:00:47;;;;;;;6.37;4.00;;;6.80;99.90;;;;;;4898557;29;20292;-59
2022/04/16 01:03:17;;;;;;;6.93;4.23;;;6.80;99.90;;;;;;4898795;29;20257;-59
2022/04/16 01:05:45;;;;;;;6.00;4.27;;;6.80;99.90;;;;;;4902741;29;20586;-59
2022/04/16 01:08:13;;;;;;;7.73;4.30;;;6.70;99.90;;;;;;4901579;29;20292;-58
2022/04/16 01:10:41;;;;;;;7.00;4.23;;;6.60;99.90;;;;;;4898385;29;20237;-58
2022/04/16 01:13:09;;;;;;;5.17;3.83;;;6.60;99.90;;;;;;4898521;29;20674;-59
2022/04/16 01:15:39;;;;;;;7.00;4.13;;;6.60;99.90;;;;;;4898026;29;20233;-59
2022/04/16 01:18:08;;;;;;;7.13;4.27;;;6.50;99.90;;;;;;4898594;29;20248;-58
2022/04/16 01:20:38;;;;;;;7.20;4.10;;;6.50;99.90;;;;;;4897944;29;20245;-59
2022/04/16 01:23:08;;;;;;;6.47;4.00;;;6.40;99.90;;;;;;4898575;29;20700;-59
2022/04/16 01:25:37;;;;;;;7.67;4.20;;;6.40;99.90;;;;;;4900752;29;20321;-58
2022/04/16 01:28:05;;;;;;;6.20;3.77;;;6.40;99.90;;;;;;4898289;29;20245;-59
2022/04/16 01:30:35;;;;;;;8.63;4.23;;;6.40;99.90;;;;;;4898810;29;20229;-58
2022/04/16 01:33:03;;;;;;;6.87;4.30;;;6.30;99.90;;;;;;4897954;29;20281;-58
2022/04/16 01:35:32;;;;;;;4.83;3.20;;;6.30;99.90;;;;;;4900233;29;20725;-59
2022/04/16 01:38:00;;;;;;;5.37;3.33;;;6.30;99.90;;;;;;4902998;29;20777;-59
2022/04/16 01:40:30;;;;;;;5.30;3.70;;;6.30;99.90;;;;;;4898181;29;20601;-59
2022/04/16 01:42:58;;;;;;;5.70;3.37;;;6.30;99.90;;;;;;4898348;29;20252;-59
2022/04/16 01:45:26;;;;;;;5.73;3.73;;;6.30;99.90;;;;;;4900682;29;20240;-58
2022/04/16 01:47:59;;;;;;;5.77;3.43;;;6.20;99.90;;;;;;4898195;29;20245;-58
2022/04/16 01:50:28;;;;;;;5.90;3.80;;;6.20;99.90;;;;;;4899005;29;20261;-58
2022/04/16 01:52:56;;;;;;;4.67;3.50;;;6.20;99.90;;;;;;4898172;29;20810;-59
2022/04/16 01:55:24;;;;;;;6.47;3.30;;;6.30;99.90;;;;;;4897760;29;20242;-59
2022/04/16 01:57:54;;;;;;;5.17;3.50;;;6.20;99.90;;;;;;4897548;29;20237;-58
2022/04/16 02:00:26;;;;;;;6.57;3.80;;;6.20;99.90;;;;;;4897801;29;20237;-58
2022/04/16 02:02:54;;;;;;;6.83;3.40;;;6.10;99.90;;;;;;4897822;29;20701;-58
2022/04/16 02:05:22;;;;;;;6.60;3.67;;;6.10;99.90;;;;;;4898019;29;20242;-59
2022/04/16 02:07:51;;;;;;;6.00;3.40;;;6.20;99.90;;;;;;4903794;29;20245;-59
2022/04/16 02:10:19;;;;;;;4.37;3.23;;;6.20;99.90;;;;;;4897757;29;20331;-59
2022/04/16 02:12:47;;;;;;;5.63;3.83;;;6.20;99.90;;;;;;4897342;29;20245;-58
2022/04/16 02:15:17;;;;;;;6.30;3.50;;;6.20;99.90;;;;;;4897565;29;20666;-58
2022/04/16 02:17:45;;;;;;;5.60;3.33;;;6.20;99.90;;;;;;4897535;29;20720;-59
2022/04/16 02:20:14;;;;;;;5.53;3.30;;;6.10;99.90;;;;;;4897439;29;20288;-58
2022/04/16 02:22:44;;;;;;;8.03;3.40;;;6.10;99.90;;;;;;4897252;29;20248;-58
2022/04/16 02:25:13;;;;;;;4.83;3.30;;;6.00;99.90;;;;;;4900073;29;20275;-58
2022/04/16 02:27:42;;;;;;;4.90;3.33;;;6.10;99.90;;;;;;4891708;29;20345;-59
2022/04/16 02:30:13;;;;;;;5.40;3.43;;;6.00;99.90;;;;;;4898128;29;20328;-58
2022/04/16 02:32:44;;;;;;;7.33;3.63;;;6.00;99.90;;;;;;4896848;29;20740;-58
2022/04/16 02:35:14;;;;;;;7.20;3.40;;;6.10;99.90;;;;;;4897298;29;20256;-59
2022/04/16 02:37:42;;;;;;;4.77;3.40;;;6.10;99.90;;;;;;4889940;29;20291;-59
2022/04/16 02:40:12;;;;;;;6.30;3.93;;;6.10;99.90;;;;;;4899377;29;20245;-58
2022/04/16 02:42:42;;;;;;;6.50;3.83;;;6.20;99.90;;;;;;4889712;29;20265;-58
2022/04/16 02:47:59;;;;;;;6.07;3.70;;;6.10;99.90;;;;;;4893574;29;20253;-58
2022/04/16 02:50:28;;;;;;;5.00;3.37;;;6.00;99.90;;;;;;4900442;29;20239;-59
2022/04/16 02:52:58;;;;;;;5.93;3.93;;;5.90;99.90;;;;;;4896925;29;20256;-58
2022/04/16 02:55:26;;;;;;;6.43;3.60;;;5.90;99.90;;;;;;4896867;29;20241;-59
2022/04/16 02:57:55;;;;;;;5.03;3.27;;;5.80;99.90;;;;;;4896784;29;20251;-58
2022/04/16 03:00:25;;;;;;;4.43;3.10;;;5.70;99.90;;;;;;4896423;29;20275;-59
2022/04/16 03:02:54;;;;;;;5.57;3.20;;;5.70;99.90;;;;;;4896795;29;20324;-59
2022/04/16 03:05:23;;;;;;;6.37;3.33;;;5.60;99.90;;;;;;4897525;29;20328;-59
2022/04/16 03:07:52;;;;;;;3.33;2.77;;;5.50;99.90;;;;;;4902658;29;20245;-58
2022/04/16 03:10:20;;;;;;;5.50;3.20;;;5.60;99.90;;;;;;4896550;29;20328;-59
2022/04/16 03:12:49;;;;;;;4.87;2.60;;;5.50;99.90;;;;;;4896376;29;20292;-58
2022/04/16 03:18:05;;;;;;;3.83;2.20;;;5.50;99.90;;;;;;4895449;29;20245;-58
2022/04/16 03:20:37;;;;;;;6.23;3.10;;;5.50;99.90;;;;;;4896038;29;20241;-58
2022/04/16 03:23:06;;;;;;;4.20;2.80;;;5.50;99.90;;;;;;4896452;29;20731;-59
2022/04/16 03:25:34;;;;;;;4.27;2.93;;;5.50;99.90;;;;;;4898261;29;20241;-58
2022/04/16 03:28:03;;;;;;;4.57;2.50;;;5.50;99.90;;;;;;4896522;29;20336;-59
2022/04/16 03:30:31;;;;;;;5.47;3.07;;;5.50;99.90;;;;;;4896773;29;20248;-58
2022/04/16 03:32:59;;;;;;;3.80;2.47;;;5.60;99.90;;;;;;4896391;29;20311;-59
2022/04/16 03:35:28;;;;;;;3.73;2.40;;;5.50;99.90;;;;;;4897808;29;20241;-59
2022/04/16 03:37:57;;;;;;;3.30;2.80;;;5.60;99.90;;;;;;4901733;29;20661;-58
2022/04/16 03:40:26;;;;;;;4.03;2.70;;;5.50;99.90;;;;;;4895883;29;20240;-58
2022/04/16 03:42:58;;;;;;;5.27;2.60;;;5.50;99.90;;;;;;4895930;29;20237;-59
2022/04/16 03:45:28;;;;;;;4.80;2.73;;;5.50;99.90;;;;;;4898466;29;20732;-59
2022/04/16 03:47:57;;;;;;;3.77;2.63;;;5.60;99.90;;;;;;4896071;29;20237;-59
2022/04/16 03:50:27;;;;;;;3.90;2.60;;;5.60;99.90;;;;;;4899380;29;20604;-58
2022/04/16 03:52:57;;;;;;;3.17;2.40;;;5.50;99.90;;;;;;4895817;29;20240;-58
2022/04/16 04:01:00;;;;;;;4.43;2.87;;;5.40;99.90;;;;;;4895745;29;20267;-59
2022/04/16 04:03:28;;;;;;;3.17;2.60;;;5.40;99.90;;;;;;4894234;29;20466;-59
2022/04/16 04:05:58;;;;;;;3.50;2.73;;;5.50;99.90;;;;;;4900501;29;20274;-59
2022/04/16 04:08:28;;;;;;;4.07;2.80;;;5.60;99.90;;;;;;4896702;29;20322;-58
2022/04/16 04:10:56;;;;;;;3.87;2.60;;;5.60;99.90;;;;;;4895851;29;20236;-58
2022/04/16 04:13:24;;;;;;;4.20;2.70;;;5.40;99.90;;;;;;4895320;29;20253;-59
2022/04/16 04:15:53;;;;;;;4.47;2.90;;;5.20;99.90;;;;;;4895420;29;20539;-59
2022/04/16 04:18:22;;;;;;;4.27;2.70;;;5.10;99.90;;;;;;4895690;29;20336;-58
2022/04/16 04:20:50;;;;;;;4.43;2.53;;;5.20;99.90;;;;;;4895434;29;20743;-58
2022/04/16 04:23:19;;;;;;;4.03;3.03;;;5.30;99.90;;;;;;4895624;29;20479;-58
2022/04/16 04:25:49;;;;;;;5.17;2.63;;;5.30;99.90;;;;;;4897706;29;20482;-59
2022/04/16 04:28:18;;;;;;;4.53;2.60;;;5.30;99.90;;;;;;4898249;29;20489;-59
2022/04/16 04:30:46;;;;;;;3.63;2.70;;;5.20;99.90;;;;;;4901662;29;20243;-59
2022/04/16 04:33:14;;;;;;;4.13;2.80;;;5.10;99.90;;;;;;4901283;29;20251;-59
2022/04/16 04:35:42;;;;;;;4.50;2.40;;;5.10;99.90;;;;;;4901531;29;20489;-58
2022/04/16 04:38:10;;;;;;;5.57;2.87;;;5.10;99.90;;;;;;4901703;29;20248;-59
2022/04/16 04:40:39;;;;;;;4.93;2.80;;;5.00;99.90;;;;;;4901435;29;20474;-59
2022/04/16 04:43:08;;;;;;;4.50;2.43;;;5.00;99.90;;;;;;4901742;29;20575;-58
2022/04/16 04:45:36;;;;;;;3.93;2.67;;;5.00;99.90;;;;;;4900880;29;21096;-58
2022/04/16 04:48:05;;;;;;;5.03;3.00;;;5.00;99.90;;;;;;4903553;29;20977;-59
2022/04/16 04:50:36;;;;;;;5.13;2.70;;;5.00;99.90;;;;;;4901360;29;20338;-58
2022/04/16 04:53:04;;;;;;;5.00;2.67;;;5.00;99.90;;;;;;4901431;29;20977;-58
2022/04/16 04:55:32;;;;;;;4.63;2.83;;;5.00;99.90;;;;;;4901170;29;20493;-58
2022/04/16 04:58:00;;;;;;;6.33;2.97;;;4.90;99.90;;;;;;4902012;29;20473;-58
2022/04/16 05:00:30;;;;;;;4.47;3.10;;;5.00;99.90;;;;;;4904575;29;20546;-59
2022/04/16 05:02:58;;;;;;;5.13;2.73;;;5.10;99.90;;;;;;4901631;29;20485;-59
2022/04/16 05:05:26;;;;;;;4.10;2.73;;;5.20;99.90;;;;;;4901239;29;20481;-58
2022/04/16 05:07:54;;;;;;;5.00;3.07;;;5.20;99.90;;;;;;4903021;29;20572;-59
2022/04/16 05:10:23;;;;;;;3.53;2.53;;;5.20;99.90;;;;;;4904137;29;20243;-58
2022/04/16 05:12:51;;;;;;;8.27;2.97;;;5.20;99.90;;;;;;4901407;29;20244;-58
2022/04/16 05:15:19;;;;;;;6.13;2.90;;;5.30;99.90;;;;;;4901514;29;20545;-59
2022/04/16 05:17:48;;;;;;;4.93;2.80;;;5.30;99.90;;;;;;4901220;29;20680;-58
2022/04/16 05:20:16;;;;;;;4.20;3.30;;;5.40;99.90;;;;;;4900928;29;20241;-59
2022/04/16 05:22:44;;;;;;;4.10;3.27;;;5.50;99.90;;;;;;4901211;29;20567;-58
2022/04/16 05:25:12;;;;;;;6.47;3.37;;;5.70;99.90;;;;;;4901454;29;20481;-58
2022/04/16 05:27:41;;;;;;;4.30;3.20;;;5.90;99.90;;;;;;4901102;29;20236;-59
2022/04/16 05:30:22;;;;;;;5.20;3.33;;;5.90;99.90;;;;;;4902346;29;20486;-58
2022/04/16 05:32:52;;;;;;;4.37;3.00;;;6.10;99.90;;;;;;4900810;29;20288;-58
2022/04/16 05:35:20;;;;;;;5.13;3.10;;;6.30;99.90;;;;;;4901315;29;20292;-59
2022/04/16 05:37:48;;;;;;;5.40;3.10;;;6.30;99.90;;;;;;4901120;29;20483;-58
2022/04/16 05:40:17;;;;;;;4.10;3.13;;;6.40;99.90;;;;;;4898220;29;20261;-58
2022/04/16 05:42:45;;;;;;;5.67;3.10;;;6.40;99.90;;;;;;4898008;29;20241;-58
2022/04/16 05:45:15;;;;;;;4.40;3.37;;;6.60;99.90;;;;;;4898091;29;20535;-59
2022/04/16 05:47:44;;;;;;;3.73;3.07;;;6.70;99.90;;;;;;4897832;29;20272;-59
2022/04/16 05:50:14;;;;;;;4.80;2.90;;;6.90;99.90;;;;;;4902043;29;20429;-59
2022/04/16 05:52:42;;;;;;;3.63;2.83;;;6.90;99.90;;;;;;4897942;29;20240;-59
2022/04/16 05:55:11;;;;;;;5.53;3.20;;;7.10;99.90;;;;;;4898273;29;20736;-58
2022/04/16 05:57:39;;;;;;;5.20;2.97;;;7.20;99.90;;;;;;4897822;29;20245;-58
2022/04/16 06:00:12;;;;;;;4.27;2.67;;;7.30;99.90;;;;;;4900128;29;20244;-58
2022/04/16 06:02:42;;;;;;;4.33;3.00;;;7.30;99.90;;;;;;4891759;29;20244;-58
2022/04/16 06:05:10;;;;;;;3.97;2.57;;;7.50;99.90;;;;;;4897965;29;20237;-59
2022/04/16 06:07:39;;;;;;;5.10;2.83;;;7.60;99.90;;;;;;4891882;29;20237;-58
2022/04/16 06:10:08;;;;;;;4.73;2.60;;;7.70;99.90;;;;;;4897812;29;20646;-58
2022/04/16 06:12:36;;;;;;;3.73;2.60;;;7.90;99.90;;;;;;4897531;29;20230;-58
2022/04/16 06:15:05;;;;;;;3.97;2.50;;;7.90;99.90;;;;;;4897911;29;20664;-58
2022/04/16 06:17:33;;;;;;;3.33;2.33;;;8.00;99.90;;;;;;4897252;29;20237;-58
2022/04/16 06:20:01;;;;;;;2.73;2.33;;;8.20;99.90;;;;;;4900103;29;20240;-58
2022/04/16 06:22:29;;;;;;;3.60;2.57;;;8.30;99.90;;;;;;4898555;29;20329;-58
2022/04/16 06:24:59;;;;;;;5.70;2.63;;;8.50;99.90;;;;;;4897734;29;20238;-58
2022/04/16 06:27:32;;;;;;;5.70;2.57;;;8.60;99.90;;;;;;4896944;29;20256;-59
2022/04/16 06:30:00;;;;;;;4.27;2.20;;;8.50;99.90;;;;;;4898512;29;20320;-58
2022/04/16 06:32:28;;;;;;;5.13;2.70;;;8.70;99.90;;;;;;4897250;29;20241;-59
2022/04/16 06:34:57;;;;;;;4.07;2.67;;;8.80;99.90;;;;;;4897468;29;21121;-58
2022/04/16 06:37:25;;;;;;;5.77;2.60;;;8.80;99.90;;;;;;4897311;29;20293;-58
2022/04/16 06:39:53;;;;;;;4.40;2.37;;;9.00;99.90;;;;;;4897599;29;20233;-59
2022/04/16 06:42:22;;;;;;;2.77;1.87;;;9.20;99.90;;;;;;4897292;29;20241;-58
2022/04/16 06:44:50;;;;;;;3.03;2.00;;;9.40;99.90;;;;;;4897475;29;20256;-59
2022/04/16 06:47:18;;;;;;;2.53;1.83;;;9.40;99.90;;;;;;4894512;29;20789;-58
2022/04/16 06:49:46;;;;;;;2.93;1.80;;;9.40;99.90;;;;;;4897459;29;20267;-58
2022/04/16 06:52:17;;;;;;;2.30;1.80;;;9.50;99.90;;;;;;4899707;29;20237;-58
2022/04/16 06:54:45;;;;;;;2.37;2.00;;;9.40;99.90;;;;;;4896951;29;20255;-59
2022/04/16 06:57:13;;;;;;;4.93;1.80;;;9.60;99.90;;;;;;4899289;29;20260;-59
2022/04/16 06:59:43;;;;;;;3.50;1.90;;;9.70;99.90;;;;;;4896660;29;20237;-58
2022/04/16 07:02:12;;;;;;;3.37;1.80;;;9.80;99.90;;;;;;4896738;29;20244;-58
2022/04/16 07:04:41;;;;;;;3.10;1.60;;;9.80;99.90;;;;;;4896847;29;20237;-58
2022/04/16 07:07:09;;;;;;;2.57;1.70;;;9.80;99.90;;;;;;4896640;29;20297;-58
2022/04/16 07:09:39;;;;;;;1.67;1.37;;;9.80;99.90;;;;;;4896841;29;20247;-58
2022/04/16 07:12:09;;;;;;;2.13;1.60;;;9.80;99.90;;;;;;4896550;29;20247;-58
2022/04/16 07:14:38;;;;;;;1.83;1.40;;;10.00;99.90;;;;;;4896634;29;20609;-58
2022/04/16 07:17:08;;;;;;;2.57;1.60;;;10.30;99.90;;;;;;4896418;29;20248;-58
2022/04/16 07:19:36;;;;;;;3.40;1.60;;;10.40;99.90;;;;;;4896227;29;20260;-58
2022/04/16 07:22:05;;;;;;;3.33;1.40;;;10.70;99.90;;;;;;4896362;29;20325;-59
2022/04/16 07:24:37;;;;;;;1.93;1.20;;;10.70;99.90;;;;;;4896447;29;20590;-59
2022/04/16 07:27:06;;;;;;;3.47;1.87;;;10.60;99.90;;;;;;4896390;29;20246;-59
2022/04/16 07:29:34;;;;;;;1.47;1.10;;;10.60;99.90;;;;;;4896968;29;20236;-58
2022/04/16 07:32:03;;;;;;;1.27;1.00;;;10.70;99.90;;;;;;4896153;29;20298;-59
2022/04/16 07:34:32;;;;;;;2.37;1.10;;;10.60;99.90;;;;;;4896552;29;20237;-59
2022/04/16 07:37:00;;;;;;;1.50;0.80;;;10.80;99.90;;;;;;4896023;29;20723;-59
2022/04/16 07:39:29;;;;;;;1.73;0.77;;;10.80;99.90;;;;;;4896307;29;20245;-58
2022/04/16 07:41:57;;;;;;;1.63;0.60;;;10.60;99.90;;;;;;4895938;29;20320;-59
2022/04/16 07:44:25;;;;;;;0.70;0.53;;;10.70;99.90;;;;;;4895974;29;20245;-58
2022/04/16 07:46:53;;;;;;;1.93;0.67;;;10.70;99.90;;;;;;4895994;29;20261;-59
2022/04/16 07:49:21;;;;;;;1.30;0.80;;;10.90;99.90;;;;;;4896310;29;20271;-59
2022/04/16 07:51:51;;;;;;;1.57;0.80;;;10.80;99.90;;;;;;4899556;29;20591;-58
2022/04/16 07:54:19;;;;;;;2.57;0.90;;;10.90;99.90;;;;;;4896001;29;20246;-59
2022/04/16 07:56:47;;;;;;;2.73;0.83;;;11.10;99.90;;;;;;4895747;29;20241;-59
2022/04/16 07:59:15;;;;;;;1.87;0.80;;;11.00;99.90;;;;;;4896352;29;20335;-58
2022/04/16 08:01:43;;;;;;;1.53;0.60;;;11.10;99.90;;;;;;4895748;29;20595;-59
2022/04/16 08:04:11;;;;;;;1.83;0.93;;;11.20;99.90;;;;;;4895117;29;20233;-59
2022/04/16 08:06:40;;;;;;;0.77;0.60;;;11.30;99.90;;;;;;4896338;29;20249;-58
2022/04/16 08:09:09;;;;;;;1.93;1.03;;;11.10;99.90;;;;;;4895832;29;20234;-58
2022/04/16 08:11:37;;;;;;;1.80;0.90;;;11.30;99.90;;;;;;4895482;29;20715;-58
2022/04/16 08:14:06;;;;;;;1.30;0.90;;;11.30;99.90;;;;;;4895798;29;20638;-59
2022/04/16 08:16:34;;;;;;;2.43;0.83;;;11.30;99.90;;;;;;4895469;29;20586;-58
2022/04/16 08:19:02;;;;;;;1.50;0.80;;;11.70;99.90;;;;;;4898732;29;20246;-58
2022/04/16 08:21:32;;;;;;;2.93;0.83;;;11.60;99.90;;;;;;4896425;29;20245;-59
2022/04/16 08:24:12;;;;;;;1.70;0.83;;;11.50;99.90;;;;;;4895938;29;20245;-58
2022/04/16 08:26:42;;;;;;;1.17;0.63;;;11.60;99.90;;;;;;4899382;29;20257;-58
2022/04/16 08:29:10;;;;;;;1.53;0.90;;;12.00;99.90;;;;;;4895731;29;20244;-58
2022/04/16 08:31:38;;;;;;;1.67;0.90;;;12.00;99.90;;;;;;4890038;29;20239;-58
2022/04/16 08:34:26;;;;;;;1.13;0.70;;;12.20;99.90;;;;;;4895143;29;20239;-58
2022/04/16 08:36:54;;;;;;;2.03;0.90;;;12.50;99.90;;;;;;4895329;29;20238;-59
2022/04/16 08:39:23;;;;;;;2.43;0.90;;;12.60;99.90;;;;;;4895642;29;20254;-57
2022/04/16 08:41:55;;;;;;;1.70;0.63;;;12.90;99.90;;;;;;4895456;29;20246;-57
2022/04/16 08:44:25;;;;;;;1.77;0.77;;;13.10;99.90;;;;;;4895429;29;20235;-57
2022/04/16 08:46:55;;;;;;;2.10;0.80;;;13.10;99.90;;;;;;4895153;29;20713;-59
2022/04/16 08:49:25;;;;;;;1.63;0.83;;;13.10;99.90;;;;;;4895611;29;20243;-59
2022/04/16 08:51:53;;;;;;;0.93;0.70;;;12.90;99.90;;;;;;4899229;29;20251;-59
2022/04/16 08:54:21;;;;;;;1.00;0.70;;;12.90;99.90;;;;;;4895515;29;20308;-59
2022/04/16 08:56:49;;;;;;;0.70;0.70;;;12.90;99.90;;;;;;4897688;29;20240;-59
2022/04/16 08:59:19;;;;;;;1.33;0.80;;;12.80;99.90;;;;;;4895086;29;20572;-59
2022/04/16 09:01:47;;;;;;;1.00;0.70;;;12.80;99.90;;;;;;4895138;29;20266;-58
2022/04/16 09:04:22;;;;;;;1.90;0.80;;;13.10;99.90;;;;;;4895428;29;20708;-58
2022/04/16 09:06:57;;;;;;;1.77;0.90;;;13.30;99.90;;;;;;4896755;29;20244;-58
2022/04/16 09:09:25;;;;;;;2.17;0.93;;;13.30;99.90;;;;;;4895309;29;20244;-59
2022/04/16 09:11:53;;;;;;;3.00;0.90;;;13.50;99.90;;;;;;4897599;29;20580;-58
2022/04/16 09:14:33;;;;;;;2.40;0.80;;;13.50;99.90;;;;;;4895265;29;20248;-59
2022/04/16 09:17:01;;;;;;;1.27;0.80;;;13.80;99.90;;;;;;4898971;29;20784;-59
2022/04/16 09:19:30;;;;;;;0.77;0.77;;;13.90;99.90;;;;;;4898623;29;20719;-58
2022/04/16 09:21:59;;;;;;;1.50;0.70;;;13.80;99.90;;;;;;4898589;29;20247;-58
2022/04/16 09:24:27;;;;;;;1.07;0.70;;;13.90;99.90;;;;;;4898638;29;20319;-58
2022/04/16 09:26:55;;;;;;;1.00;0.70;;;13.80;99.90;;;;;;4898227;29;20249;-59
2022/04/16 09:29:25;;;;;;;1.87;0.80;;;13.80;99.90;;;;;;4899194;29;20249;-57
2022/04/16 09:31:53;;;;;;;3.43;1.00;;;13.90;99.90;;;;;;4898229;29;20808;-59
2022/04/16 09:34:23;;;;;;;0.90;0.70;;;14.10;99.90;;;;;;4898513;29;20605;-58
2022/04/16 09:36:54;;;;;;;1.27;0.80;;;14.50;99.90;;;;;;4898364;29;21267;-58
2022/04/16 09:39:22;;;;;;;2.90;0.80;;;14.90;99.90;;;;;;4898504;29;20297;-58
2022/04/16 09:41:51;;;;;;;1.70;1.03;;;15.20;99.90;;;;;;4897849;29;20332;-59
2022/04/16 09:44:21;;;;;;;1.33;0.90;;;14.90;99.90;;;;;;4898468;29;20255;-58
2022/04/16 09:46:55;;;;;;;1.07;0.80;;;14.60;99.90;;;;;;4898164;29;22465;-58
2022/04/16 09:49:24;;;;;;;0.97;0.63;;;14.90;99.90;;;;;;4898389;29;20283;-58
2022/04/16 09:51:52;;;;;;;1.07;0.67;;;15.20;99.90;;;;;;4901914;29;20600;-58
2022/04/16 09:54:21;;;;;;;0.87;0.60;;;15.00;99.90;;;;;;4898127;29;20255;-59
2022/04/16 09:56:50;;;;;;;1.20;0.70;;;14.70;98.70;;;;;;4900369;29;20296;-59
2022/04/16 09:59:18;;;;;;;1.63;0.70;;;14.40;99.90;;;;;;4897972;29;20255;-58
2022/04/16 10:01:48;;;;;;;1.67;0.90;;;14.20;99.90;;;;;;4897625;29;20304;-58
2022/04/16 10:04:20;;;;;;;1.57;0.70;;;14.50;99.60;;;;;;4898183;29;20245;-58
2022/04/16 10:06:51;;;;;;;1.27;0.83;;;14.80;99.90;;;;;;4899415;29;20265;-59
2022/04/16 10:09:22;;;;;;;1.77;0.83;;;14.60;98.80;;;;;;4897522;29;20251;-58
2022/04/16 10:14:50;;;;;;;1.00;0.80;;;15.10;99.10;;;;;;4897794;29;20325;-58
2022/04/16 10:17:28;;;;;;;1.37;1.00;;;15.40;99.00;;;;;;4897578;29;20315;-58
2022/04/16 10:20:09;;;;;;;1.10;0.80;;;15.30;97.40;;;;;;4899068;29;20297;-58
2022/04/16 10:22:38;;;;;;;2.47;1.20;;;15.60;97.30;;;;;;4897185;29;20316;-59
2022/04/16 10:25:07;;;;;;;2.07;1.37;;;15.80;96.70;;;;;;4899099;29;20241;-59
2022/04/16 10:27:40;;;;;;;1.43;0.87;;;16.00;96.20;;;;;;4899068;29;20243;-58
2022/04/16 10:30:10;;;;;;;0.93;0.70;;;15.90;96.30;;;;;;4899352;29;20593;-59
2022/04/16 10:32:40;;;;;;;1.23;0.90;;;16.20;96.40;;;;;;4897030;29;20241;-59
2022/04/16 10:35:15;;;;;;;1.13;1.03;;;16.20;95.80;;;;;;4897338;29;20237;-58
2022/04/16 10:37:45;;;;;;;1.70;0.80;;;16.20;95.90;;;;;;4897346;29;20341;-58
2022/04/16 10:40:20;;;;;;;1.33;0.80;;;16.40;94.80;;;;;;4899774;29;20687;-58
2022/04/16 10:42:49;;;;;;;1.07;0.97;;;16.80;98.10;;;;;;4897183;29;20331;-59
2022/04/16 10:45:21;;;;;;;1.90;1.00;;;17.00;97.50;;;;;;4899578;29;20804;-58
2022/04/16 10:47:50;;;;;;;1.83;0.80;;;17.30;97.10;;;;;;4898845;29;20256;-59
2022/04/16 10:50:21;;;;;;;1.03;0.90;;;16.90;95.70;;;;;;4897033;29;20249;-58
2022/04/16 10:52:53;;;;;;;1.23;1.00;;;16.70;95.10;;;;;;4897065;29;20269;-59
2022/04/16 10:55:30;;;;;;;1.00;0.87;;;16.50;96.00;;;;;;4896981;29;20241;-58
2022/04/16 10:58:03;;;;;;;0.97;0.80;;;16.40;95.40;;;;;;4897114;29;20261;-59
2022/04/16 11:00:40;;;;;;;1.27;0.93;;;16.20;94.80;;;;;;4899726;29;20271;-58
2022/04/16 11:03:11;;;;;;;1.23;0.90;;;16.00;94.00;;;;;;4896820;29;20263;-58
2022/04/16 11:05:42;;;;;;;1.40;0.93;;;16.00;94.70;;;;;;4896760;29;20229;-59
2022/04/16 11:08:13;;;;;;;1.20;1.00;;;16.30;93.10;;;;;;4898690;29;20720;-59
2022/04/16 11:10:42;;;;;;;1.07;0.80;;;16.10;94.30;;;;;;4896522;29;20237;-58
2022/04/16 11:13:13;;;;;;;1.10;0.90;;;16.10;94.30;;;;;;4896741;29;20244;-58
2022/04/16 11:15:42;;;;;;;0.80;0.80;;;16.10;95.00;;;;;;4896264;29;20237;-59
2022/04/16 11:18:12;;;;;;;1.53;0.93;;;15.70;93.30;;;;;;4896639;29;20236;-59
2022/04/16 11:20:43;;;;;;;1.20;1.00;;;15.60;93.00;;;;;;4896007;29;20292;-58
2022/04/16 11:23:11;;;;;;;2.00;0.83;;;15.90;92.90;;;;;;4896629;29;20248;-59
2022/04/16 11:34:20;;;;;;;1.40;0.90;;;16.30;92.70;;;;;;4896236;29;20241;-58
2022/04/16 11:36:52;;;;;;;1.33;0.90;;;16.50;93.90;;;;;;4895815;29;20257;-59
2022/04/16 11:39:21;;;;;;;1.27;1.00;;;16.20;93.00;;;;;;4896078;29;20268;-59
2022/04/16 11:41:53;;;;;;;1.40;1.00;;;16.30;93.10;;;;;;4898212;29;20233;-58
2022/04/16 11:44:38;;;;;;;2.77;0.90;;;16.00;92.40;;;;;;4896282;29;20236;-58
2022/04/16 11:47:10;;;;;;;2.17;1.10;;;15.60;92.60;;;;;;4895757;29;20245;-58
2022/04/16 11:49:41;;;;;;;1.20;0.90;;;15.40;92.70;;;;;;4896203;29;20662;-58
2022/04/16 11:52:11;;;;;;;1.47;1.00;;;15.60;92.60;;;;;;4894727;29;20788;-58
2022/04/16 11:54:39;;;;;;;1.23;0.93;;;15.70;91.40;;;;;;4895865;29;20237;-59
2022/04/16 11:57:08;;;;;;;1.47;1.20;;;15.80;92.30;;;;;;4895574;29;20237;-59
2022/04/16 11:59:36;;;;;;;1.40;1.20;;;15.60;92.60;;;;;;4896436;29;20297;-58
2022/04/16 12:02:07;;;;;;;2.70;1.37;;;15.60;93.70;;;;;;4895825;29;20244;-58
2022/04/16 12:04:40;;;;;;;1.40;1.20;;;15.40;94.90;;;;;;4895865;29;20328;-59
2022/04/16 12:07:14;;;;;;;2.30;1.00;;;15.50;93.80;;;;;;4897460;29;20273;-59
2022/04/16 12:09:46;;;;;;;1.40;1.00;;;15.50;92.40;;;;;;4896123;29;20282;-58
2022/04/16 12:12:15;;;;;;;1.10;0.80;;;15.40;93.40;;;;;;4897715;29;20233;-58
2022/04/16 12:14:48;;;;;;;2.30;1.10;;;15.40;93.60;;;;;;4895833;29;20251;-58
2022/04/16 12:17:24;;;;;;;2.27;1.10;;;15.30;93.70;;;;;;4895401;29;20328;-59
2022/04/16 12:20:04;;;;;;;1.83;1.20;;;15.30;93.50;;;;;;4896837;29;20264;-58
2022/04/16 12:22:34;;;;;;;1.30;1.00;;;14.90;95.50;;;;;;4896291;29;20952;-59
2022/04/16 12:25:09;;;;;;;1.10;1.00;;;14.90;95.40;;;;;;4896078;29;20571;-58
2022/04/16 12:27:44;;;;;;;1.80;1.33;;;15.00;96.10;;;;;;4895292;29;20243;-59
2022/04/16 12:30:14;;;;;;;2.60;1.40;;;15.10;96.20;;;;;;4896154;29;20271;-58
2022/04/16 12:32:43;;;;;;;2.60;1.77;;;15.40;94.50;;;;;;4895031;29;20748;-58
2022/04/16 12:35:11;;;;;;;2.20;1.47;;;15.20;95.10;;;;;;4895341;29;20721;-59
2022/04/16 12:37:40;;;;;;;1.70;1.60;;;15.20;95.10;;;;;;4895274;29;20240;-59
2022/04/16 12:40:10;;;;;;;2.80;1.50;;;15.10;95.00;;;;;;4895504;29;20241;-58
2022/04/16 12:42:38;;;;;;;1.87;1.47;;;15.00;95.30;;;;;;4887787;29;20240;-58
2022/04/16 12:45:07;;;;;;;2.17;1.40;;;14.90;95.90;;;;;;4895566;29;20740;-59
2022/04/16 12:47:35;;;;;;;1.77;1.20;;;14.90;95.70;;;;;;4895058;29;20241;-58
2022/04/16 12:50:04;;;;;;;2.30;1.37;;;15.00;95.60;;;;;;4900935;29;20239;-58
2022/04/16 12:52:34;;;;;;;1.57;1.30;;;15.10;95.50;;;;;;4899787;29;20256;-58
2022/04/16 12:55:04;;;;;;;1.47;1.20;;;15.00;94.10;;;;;;4899336;29;20241;-58
2022/04/16 12:57:32;;;;;;;2.40;1.80;;;15.00;96.10;;;;;;4898896;29;20332;-59
2022/04/16 13:00:00;;;;;;;1.90;1.67;;;15.10;95.00;;;;;;4900528;29;20264;-59
2022/04/16 13:02:28;;;;;;;1.90;1.60;;;14.90;94.90;;;;;;4899942;29;20708;-59
2022/04/16 13:04:56;;;;;;;2.70;1.60;;;14.70;95.50;;;;;;4899113;29;20567;-58
2022/04/16 13:07:24;;;;;;;2.90;1.43;;;14.60;96.50;;;;;;4898863;29;20251;-59
2022/04/16 13:09:52;;;;;;;1.97;1.40;;;14.60;96.30;;;;;;4899162;29;20237;-60
2022/04/16 13:12:22;;;;;;;1.73;1.30;;;14.80;97.80;;;;;;4896602;29;20241;-59
2022/04/16 13:14:50;;;;;;;1.87;1.40;;;14.60;95.40;;;;;;4899028;29;20260;-59
2022/04/16 13:17:19;;;;;;;2.00;1.40;;;14.60;95.60;;;;;;4898718;29;20649;-59
2022/04/16 13:19:47;;;;;;;3.40;1.90;;;14.90;94.70;;;;;;4898989;29;20324;-59
2022/04/16 13:22:15;;;;;;;2.57;1.90;;;14.70;94.80;;;;;;4899146;29;20681;-58
2022/04/16 13:24:43;;;;;;;2.67;1.83;;;14.50;95.40;;;;;;4898678;29;20361;-58